Time;durP1;ratioP1;P1;durP2;ratioP2;P2;SDS_P1;SDS_P2;PMS_P1;PMS_P2;Temp;Humidity;BMP_temperature;BMP_pressure;BME280_temperature;BME280_humidity;BME280_pressure;Samples;Min_cycle;Max_cycle;Signal;HPM_P1;HPM_P2
2023/04/11 00:00:43;;;;;;;27.23;5.03;;;;;8.70;100558.00;;;;9862264;29;20217;-81
2023/04/11 00:05:45;;;;;;;27.13;4.80;;;;;8.70;100556.00;;;;9869956;29;20721;-79
2023/04/11 00:10:47;;;;;;;23.00;3.40;;;;;8.60;100561.00;;;;9882788;29;20216;-80
2023/04/11 00:15:54;;;;;;;27.70;4.80;;;;;8.60;100563.00;;;;9853247;29;20695;-79
2023/04/11 00:20:56;;;;;;;22.63;3.30;;;;;8.70;100551.00;;;;9823945;30;20200;-80
2023/04/11 00:25:58;;;;;;;21.80;4.03;;;;;8.80;100550.00;;;;9838315;30;20236;-79
2023/04/11 00:31:00;;;;;;;22.97;4.70;;;;;8.70;100546.00;;;;9845819;29;20208;-80
2023/04/11 00:36:02;;;;;;;21.17;4.57;;;;;8.70;100562.00;;;;9860148;29;20622;-79
2023/04/11 00:41:05;;;;;;;20.33;4.17;;;;;8.60;100556.00;;;;9860100;29;20215;-79
2023/04/11 00:46:08;;;;;;;26.43;5.00;;;;;8.60;100568.00;;;;9832097;30;20628;-79
2023/04/11 00:51:10;;;;;;;30.43;5.83;;;;;8.50;100562.00;;;;9872681;29;20215;-80
2023/04/11 00:56:12;;;;;;;25.53;3.90;;;;;8.50;100552.00;;;;9838056;29;20674;-80
2023/04/11 01:01:15;;;;;;;19.43;3.87;;;;;8.40;100540.00;;;;9866491;29;20211;-80
2023/04/11 01:06:19;;;;;;;23.97;4.27;;;;;8.40;100547.00;;;;9860369;29;20722;-80
2023/04/11 01:11:22;;;;;;;32.43;4.23;;;;;8.30;100556.00;;;;9870909;29;20452;-80
2023/04/11 01:16:25;;;;;;;28.47;4.77;;;;;8.20;100581.00;;;;9881797;29;20294;-80
2023/04/11 01:21:28;;;;;;;26.53;4.30;;;;;8.20;100576.00;;;;9852192;29;20223;-81
2023/04/11 01:26:31;;;;;;;25.50;4.50;;;;;8.20;100570.00;;;;9864418;29;20763;-80
2023/04/11 01:31:33;;;;;;;29.80;5.57;;;;;8.20;100570.00;;;;9836891;30;20674;-79
2023/04/11 01:36:36;;;;;;;28.03;4.43;;;;;8.10;100578.00;;;;9827775;30;20200;-79
2023/04/11 01:41:40;;;;;;;20.93;3.83;;;;;8.10;100568.00;;;;9843810;29;20212;-79
2023/04/11 01:46:43;;;;;;;24.97;4.07;;;;;8.10;100587.00;;;;9865712;29;20203;-79
2023/04/11 01:51:46;;;;;;;32.07;4.90;;;;;8.10;100592.00;;;;9880302;29;20211;-80
2023/04/11 01:56:48;;;;;;;25.97;4.87;;;;;8.10;100590.00;;;;9828167;30;20239;-81
2023/04/11 02:01:50;;;;;;;18.70;4.03;;;;;8.00;100590.00;;;;9845532;30;20580;-80
2023/04/11 02:06:52;;;;;;;28.53;4.80;;;;;8.10;100604.00;;;;9892213;29;20203;-80
2023/04/11 02:11:55;;;;;;;24.03;3.53;;;;;8.00;100608.00;;;;9848010;29;20215;-81
2023/04/11 02:16:57;;;;;;;19.97;3.60;;;;;8.10;100620.00;;;;9848058;29;20203;-81
2023/04/11 02:22:00;;;;;;;24.93;3.67;;;;;8.00;100626.00;;;;9847849;29;20203;-80
2023/04/11 02:27:03;;;;;;;29.97;4.60;;;;;8.00;100626.00;;;;9877694;29;20199;-81
2023/04/11 02:32:05;;;;;;;27.53;4.47;;;;;8.00;100626.00;;;;9864464;29;20231;-79
2023/04/11 02:37:07;;;;;;;21.97;4.00;;;;;8.00;100620.00;;;;9848651;29;20207;-80
2023/04/11 02:42:11;;;;;;;17.13;3.57;;;;;8.00;100625.00;;;;9871626;29;20281;-79
2023/04/11 02:47:13;;;;;;;24.43;4.63;;;;;7.80;100618.00;;;;9833067;29;20299;-79
2023/04/11 02:52:17;;;;;;;20.60;3.40;;;;;7.80;100635.00;;;;9835401;30;20277;-79
2023/04/11 02:57:20;;;;;;;19.13;4.57;;;;;7.80;100633.00;;;;9839794;30;20212;-80
2023/04/11 03:02:22;;;;;;;18.47;3.77;;;;;7.80;100640.00;;;;9835542;29;20239;-79
2023/04/11 03:07:25;;;;;;;23.17;4.20;;;;;7.70;100648.00;;;;9849598;29;20207;-81
2023/04/11 03:12:28;;;;;;;18.77;4.00;;;;;7.60;100644.00;;;;9846208;29;20256;-79
2023/04/11 03:17:35;;;;;;;14.27;3.33;;;;;7.60;100653.00;;;;9859830;29;20208;-80
2023/04/11 03:22:38;;;;;;;24.23;3.40;;;;;7.50;100662.00;;;;9810454;30;20951;-79
2023/04/11 03:27:41;;;;;;;17.27;3.30;;;;;7.50;100661.00;;;;9843742;29;20727;-80
2023/04/11 03:32:45;;;;;;;25.17;4.07;;;;;7.50;100667.00;;;;9836575;29;20212;-81
2023/04/11 03:37:47;;;;;;;26.40;4.03;;;;;7.50;100651.00;;;;9840061;29;20204;-80
2023/04/11 03:42:50;;;;;;;26.70;4.33;;;;;7.50;100654.00;;;;9865491;29;20231;-79
2023/04/11 03:47:57;;;;;;;22.57;3.27;;;;;7.30;100669.00;;;;9894670;29;20203;-80
2023/04/11 03:53:06;;;;;;;15.80;2.97;;;;;7.20;100685.00;;;;9898934;29;20195;-80
2023/04/11 03:58:08;;;;;;;21.63;4.00;;;;;7.20;100688.00;;;;9874615;29;20228;-80
2023/04/11 04:03:14;;;;;;;21.03;3.73;;;;;7.10;100699.00;;;;9860841;29;20330;-79
2023/04/11 04:08:18;;;;;;;17.50;4.10;;;;;7.20;100697.00;;;;9862058;29;20215;-80
2023/04/11 04:13:22;;;;;;;19.43;3.40;;;;;7.10;100694.00;;;;9859431;29;20286;-79
2023/04/11 04:18:43;;;;;;;19.37;3.60;;;;;7.20;100698.00;;;;9825795;30;20776;-79
2023/04/11 04:23:46;;;;;;;23.67;3.87;;;;;7.20;100700.00;;;;9853576;30;20216;-80
2023/04/11 04:29:04;;;;;;;20.10;3.50;;;;;7.10;100707.00;;;;9847904;29;20211;-80
2023/04/11 04:34:23;;;;;;;24.23;4.00;;;;;7.00;100715.00;;;;9883120;29;20204;-80
2023/04/11 04:39:28;;;;;;;24.30;4.00;;;;;6.90;100721.00;;;;9868735;29;20273;-80
2023/04/11 04:44:47;;;;;;;21.17;3.77;;;;;6.90;100724.00;;;;9863839;29;20233;-79
2023/04/11 04:49:56;;;;;;;16.00;3.40;;;;;7.00;100733.00;;;;9854477;29;20212;-79
2023/04/11 04:54:59;;;;;;;28.73;4.73;;;;;7.10;100740.00;;;;9867130;29;20268;-79
2023/04/11 05:00:05;;;;;;;18.87;3.07;;;;;7.10;100733.00;;;;9829776;30;20213;-79
2023/04/11 05:05:08;;;;;;;21.73;4.43;;;;;7.10;100742.00;;;;9835223;29;20210;-80
2023/04/11 05:10:11;;;;;;;15.87;3.23;;;;;7.00;100748.00;;;;9844469;29;20279;-80
2023/04/11 05:15:15;;;;;;;20.70;3.27;;;;;7.00;100740.00;;;;9881465;29;20656;-80
2023/04/11 05:20:17;;;;;;;27.23;3.80;;;;;7.00;100759.00;;;;9866740;29;20219;-79
2023/04/11 05:25:21;;;;;;;19.90;3.13;;;;;7.00;100760.00;;;;9853822;29;20239;-80
2023/04/11 05:30:25;;;;;;;19.00;4.47;;;;;7.20;100759.00;;;;9843162;30;20285;-81
2023/04/11 05:35:28;;;;;;;24.20;4.07;;;;;7.30;100753.00;;;;9828526;30;20216;-80
2023/04/11 05:40:32;;;;;;;21.13;4.10;;;;;7.50;100768.00;;;;9841842;29;20222;-80
2023/04/11 05:45:34;;;;;;;19.40;3.93;;;;;7.70;100775.00;;;;9851082;29;20227;-79
2023/04/11 05:50:38;;;;;;;21.20;3.07;;;;;7.90;100782.00;;;;9858889;29;20684;-79
2023/04/11 05:55:40;;;;;;;18.97;3.57;;;;;8.00;100786.00;;;;9856170;29;20295;-79
2023/04/11 06:00:44;;;;;;;22.77;3.37;;;;;8.20;100796.00;;;;9844035;30;20227;-79
2023/04/11 06:05:47;;;;;;;16.33;3.73;;;;;8.50;100794.00;;;;9869677;29;20838;-80
2023/04/11 06:10:49;;;;;;;18.20;3.13;;;;;8.70;100794.00;;;;9812242;30;20229;-81
2023/04/11 06:15:51;;;;;;;20.43;2.97;;;;;8.90;100797.00;;;;9841871;30;20752;-80
2023/04/11 06:20:54;;;;;;;19.00;4.10;;;;;9.20;100802.00;;;;9859856;29;20204;-80
2023/04/11 06:25:56;;;;;;;13.30;3.23;;;;;9.50;100796.00;;;;9827928;30;20458;-80
2023/04/11 06:30:58;;;;;;;18.90;3.23;;;;;9.90;100796.00;;;;9823232;30;20652;-80
2023/04/11 06:36:00;;;;;;;18.50;3.87;;;;;10.20;100804.00;;;;9844213;29;20215;-81
2023/04/11 06:41:04;;;;;;;13.87;2.83;;;;;10.40;100813.00;;;;9865103;29;20203;-81
2023/04/11 06:46:07;;;;;;;19.97;3.27;;;;;10.70;100816.00;;;;9863671;29;20227;-81
2023/04/11 06:51:09;;;;;;;10.70;2.50;;;;;10.80;100833.00;;;;9842402;29;20284;-81
2023/04/11 06:56:11;;;;;;;14.43;3.60;;;;;11.00;100828.00;;;;9842414;30;20573;-81
2023/04/11 07:01:13;;;;;;;13.27;2.60;;;;;11.10;100835.00;;;;9836966;29;20208;-81
2023/04/11 07:06:15;;;;;;;15.67;2.97;;;;;11.40;100845.00;;;;9895735;29;20219;-80
2023/04/11 07:11:18;;;;;;;14.03;3.17;;;;;11.70;100855.00;;;;9885630;29;20212;-82
2023/04/11 07:16:21;;;;;;;13.70;3.10;;;;;11.90;100860.00;;;;9880248;29;20219;-81
2023/04/11 07:21:23;;;;;;;16.67;3.43;;;;;12.00;100855.00;;;;9865763;29;20442;-81
2023/04/11 07:26:30;;;;;;;12.23;2.73;;;;;11.90;100889.00;;;;9869975;29;20716;-81
2023/04/11 07:31:33;;;;;;;14.00;2.63;;;;;12.10;100877.00;;;;9863704;29;20275;-81
2023/04/11 07:36:35;;;;;;;10.87;2.93;;;;;12.80;100875.00;;;;9829916;30;20306;-81
2023/04/11 07:41:37;;;;;;;13.17;2.77;;;;;13.30;100874.00;;;;9850326;29;20283;-81
2023/04/11 07:46:39;;;;;;;9.70;2.13;;;;;13.00;100871.00;;;;9864981;29;20215;-80
2023/04/11 07:51:41;;;;;;;13.10;3.10;;;;;13.60;100870.00;;;;9861633;29;20719;-81
2023/04/11 07:56:44;;;;;;;14.57;3.30;;;;;14.10;100872.00;;;;9833245;29;20350;-81
2023/04/11 08:01:47;;;;;;;15.23;3.00;;;;;14.50;100872.00;;;;9851528;29;20694;-80
2023/04/11 08:06:50;;;;;;;9.97;2.60;;;;;13.80;100862.00;;;;9877417;29;20249;-81
2023/04/11 08:11:53;;;;;;;10.17;2.60;;;;;13.90;100882.00;;;;9887457;29;20223;-81
2023/04/11 08:16:55;;;;;;;8.45;2.15;;;;;14.60;100876.00;;;;9842326;29;20924;-81
2023/04/11 08:21:57;;;;;;;9.82;2.58;;;;;13.70;100884.00;;;;9853706;29;20235;-81
2023/04/11 08:27:00;;;;;;;10.10;2.40;;;;;13.60;100882.00;;;;9832165;30;20226;-81
2023/04/11 08:32:03;;;;;;;10.23;2.63;;;;;14.90;100890.00;;;;9882780;29;20208;-81
2023/04/11 08:37:05;;;;;;;13.07;3.85;;;;;15.60;100896.00;;;;9885320;29;20211;-81
2023/04/11 08:42:23;;;;;;;9.32;2.10;;;;;15.50;100893.00;;;;9845422;29;20239;-81
2023/04/11 08:47:26;;;;;;;6.38;1.80;;;;;15.40;100896.00;;;;9856385;29;20218;-82
2023/04/11 08:52:29;;;;;;;4.93;1.40;;;;;15.50;100861.00;;;;9869950;29;20218;-81
2023/04/11 08:57:31;;;;;;;6.50;2.22;;;;;15.90;100899.00;;;;9846307;29;20224;-81
2023/04/11 09:02:34;;;;;;;10.00;2.35;;;;;16.80;100908.00;;;;9874803;29;20220;-81
2023/04/11 09:07:49;;;;;;;8.73;2.22;;;;;16.70;100903.00;;;;9842762;29;20235;-81
2023/04/11 09:12:51;;;;;;;8.45;2.65;;;;;16.60;100913.00;;;;9846057;30;20201;-82
2023/04/11 09:17:55;;;;;;;8.90;2.15;;;;;16.00;100915.00;;;;9872140;29;20216;-80
2023/04/11 09:23:01;;;;;;;8.07;2.08;;;;;16.70;100902.00;;;;9869181;29;20683;-82
2023/04/11 09:28:08;;;;;;;5.55;1.38;;;;;17.80;100898.00;;;;9853776;29;20276;-81
2023/04/11 09:33:22;;;;;;;14.90;6.00;;;;;18.40;100902.00;;;;9839772;30;20536;-81
2023/04/11 09:38:32;;;;;;;8.80;1.92;;;;;17.80;100898.00;;;;9866644;29;20215;-80
2023/04/11 09:44:01;;;;;;;6.30;1.60;;;;;16.30;100902.00;;;;9866747;29;20223;-82
2023/04/11 09:49:03;;;;;;;6.15;2.38;;;;;17.40;100882.00;;;;9878007;29;20283;-82
2023/04/11 09:54:07;;;;;;;9.52;2.05;;;;;16.70;100900.00;;;;9880575;29;20212;-82
2023/04/11 09:59:09;;;;;;;5.38;1.63;;;;;16.80;100896.00;;;;9874007;29;20230;-82
2023/04/11 10:04:12;;;;;;;7.50;2.10;;;;;16.00;100887.00;;;;9866405;29;20262;-82
2023/04/11 10:09:15;;;;;;;12.15;1.90;;;;;15.60;100886.00;;;;9875256;29;20208;-81
2023/04/11 10:14:37;;;;;;;4.78;1.33;;;;;15.00;100887.00;;;;9885772;29;20215;-83
2023/04/11 10:19:40;;;;;;;7.53;1.20;;;;;14.10;100872.00;;;;9877655;29;20260;-84
2023/04/11 10:25:17;;;;;;;6.30;2.43;;;;;13.50;100901.00;;;;9887449;29;20314;-84
2023/04/11 10:30:38;;;;;;;11.80;2.40;;;;;13.40;100897.00;;;;9881255;29;21010;-82
2023/04/11 10:35:58;;;;;;;5.93;1.90;;;;;13.50;100894.00;;;;9849756;29;20239;-82
2023/04/11 10:41:26;;;;;;;9.13;2.50;;;;;15.40;100891.00;;;;9849150;29;20302;-83
2023/04/11 10:46:28;;;;;;;13.37;2.57;;;;;14.40;100887.00;;;;9861919;29;20227;-82
2023/04/11 10:51:32;;;;;;;14.25;3.08;;;;;14.10;100881.00;;;;9863066;29;20249;-83
2023/04/11 10:56:44;;;;;;;7.72;2.72;;;;;16.80;100875.00;;;;9867228;29;20215;-83
2023/04/11 11:01:53;;;;;;;10.10;3.00;;;;;16.70;100887.00;;;;9890147;29;20456;-83
2023/04/11 11:06:57;;;;;;;9.70;2.58;;;;;15.90;100870.00;;;;9867180;29;20338;-83
2023/04/11 11:12:10;;;;;;;7.80;2.10;;;;;17.70;100874.00;;;;9856588;29;20891;-83
2023/04/11 11:17:14;;;;;;;10.70;2.60;;;;;19.70;100870.00;;;;9861037;29;20215;-84
2023/04/11 11:22:27;;;;;;;8.98;2.08;;;;;19.80;100876.00;;;;9860846;29;20809;-83
2023/04/11 11:27:29;;;;;;;4.65;1.80;;;;;19.90;100876.00;;;;9866986;29;20247;-83
2023/04/11 11:32:31;;;;;;;6.03;2.67;;;;;19.50;100865.00;;;;9874021;29;20208;-82
2023/04/11 11:37:33;;;;;;;9.55;2.92;;;;;20.20;100871.00;;;;9846283;29;20377;-83
2023/04/11 11:42:35;;;;;;;6.85;1.77;;;;;20.70;100871.00;;;;9863794;29;20221;-83
2023/04/11 11:47:42;;;;;;;6.85;1.75;;;;;20.90;100869.00;;;;9860856;29;21070;-82
2023/04/11 11:52:47;;;;;;;6.75;2.17;;;;;20.30;100867.00;;;;9877453;29;20281;-84
2023/04/11 11:57:49;;;;;;;6.53;1.77;;;;;21.70;100875.00;;;;9889149;29;20298;-82
2023/04/11 12:02:53;;;;;;;6.10;2.00;;;;;20.70;100867.00;;;;9853410;29;20226;-82
2023/04/11 12:07:58;;;;;;;4.93;2.70;;;;;21.60;100846.00;;;;9831905;29;20220;-81
2023/04/11 12:13:00;;;;;;;7.78;1.65;;;;;22.90;100857.00;;;;9858903;29;20203;-82
2023/04/11 12:18:05;;;;;;;8.23;2.65;;;;;21.00;100878.00;;;;9855554;29;20221;-81
2023/04/11 12:23:07;;;;;;;8.45;1.85;;;;;19.50;100883.00;;;;9859442;29;20303;-81
2023/04/11 12:28:10;;;;;;;6.75;2.00;;;;;19.90;100863.00;;;;9874381;29;20231;-81
2023/04/11 12:33:12;;;;;;;8.80;1.80;;;;;19.30;100875.00;;;;9835499;29;20211;-81
2023/04/11 12:38:14;;;;;;;4.47;1.73;;;;;18.90;100873.00;;;;9846417;29;20311;-81
2023/04/11 12:43:19;;;;;;;7.43;1.65;;;;;18.00;100881.00;;;;9869656;29;20267;-81
2023/04/11 12:48:21;;;;;;;8.32;2.00;;;;;17.40;100876.00;;;;9838071;29;20307;-82
2023/04/11 12:53:23;;;;;;;6.40;2.03;;;;;17.10;100866.00;;;;9835068;29;20441;-82
2023/04/11 12:58:27;;;;;;;9.55;2.03;;;;;17.00;100867.00;;;;9848624;29;20216;-83
2023/04/11 13:03:29;;;;;;;9.57;2.35;;;;;18.10;100849.00;;;;9866508;29;20314;-82
2023/04/11 13:08:31;;;;;;;8.82;2.50;;;;;19.50;100864.00;;;;9798034;29;20812;-82
2023/04/11 13:13:33;;;;;;;5.82;1.63;;;;;18.50;100864.00;;;;9789355;29;20457;-82
2023/04/11 13:18:35;;;;;;;8.38;1.70;;;;;17.80;100855.00;;;;9804390;29;20676;-82
2023/04/11 13:23:37;;;;;;;8.15;2.10;;;;;17.00;100846.00;;;;9811234;29;20220;-82
2023/04/11 13:28:39;;;;;;;10.50;2.55;;;;;18.60;100830.00;;;;9835488;29;20298;-82
2023/04/11 13:33:44;;;;;;;6.78;2.38;;;;;21.00;100835.00;;;;9827416;29;20211;-81
2023/04/11 13:38:47;;;;;;;8.57;2.80;;;;;18.60;100833.00;;;;9823476;29;20276;-82
2023/04/11 13:43:51;;;;;;;4.50;2.05;;;;;17.10;100827.00;;;;9843709;29;20227;-82
2023/04/11 13:48:53;;;;;;;5.78;2.15;;;;;16.60;100818.00;;;;9817460;29;20215;-81
2023/04/11 13:53:55;;;;;;;5.63;1.50;;;;;16.90;100799.00;;;;9840493;29;21005;-82
2023/04/11 13:58:57;;;;;;;6.55;1.73;;;;;17.30;100808.00;;;;9836454;29;20242;-81
2023/04/11 14:04:00;;;;;;;8.60;1.73;;;;;19.20;100770.00;;;;9840361;29;20227;-81
2023/04/11 14:09:04;;;;;;;10.25;1.83;;;;;19.90;100780.00;;;;9822332;29;20207;-82
2023/04/11 14:14:06;;;;;;;4.10;1.35;;;;;23.10;100757.00;;;;9831758;29;20211;-82
2023/04/11 14:19:08;;;;;;;8.00;1.40;;;;;20.90;100782.00;;;;9808252;29;20606;-82
2023/04/11 14:24:10;;;;;;;6.93;1.63;;;;;18.70;100765.00;;;;9832416;29;20477;-83
2023/04/11 14:29:12;;;;;;;9.48;2.15;;;;;22.10;100755.00;;;;9813324;29;20235;-82
2023/04/11 14:34:14;;;;;;;7.43;1.67;;;;;18.90;100777.00;;;;9823070;29;20207;-82
2023/04/11 14:39:16;;;;;;;9.20;1.33;;;;;17.60;100771.00;;;;9801687;29;20924;-81
2023/04/11 14:44:18;;;;;;;7.05;1.92;;;;;17.50;100748.00;;;;9820917;29;20227;-82
2023/04/11 14:49:20;;;;;;;5.95;1.85;;;;;18.70;100743.00;;;;9838972;29;20207;-81
2023/04/11 14:54:23;;;;;;;4.43;1.20;;;;;18.20;100748.00;;;;9858631;29;20207;-81
2023/04/11 14:59:24;;;;;;;5.50;1.42;;;;;17.40;100746.00;;;;9825555;29;20235;-81
2023/04/11 15:04:26;;;;;;;7.35;1.35;;;;;17.60;100728.00;;;;9833159;29;20471;-81
2023/04/11 15:09:29;;;;;;;9.20;1.95;;;;;18.10;100733.00;;;;9827033;29;20219;-81
2023/04/11 15:14:31;;;;;;;7.15;2.42;;;;;17.80;100725.00;;;;9837028;29;20431;-81
2023/04/11 15:19:33;;;;;;;10.43;2.97;;;;;17.80;100724.00;;;;9819914;29;20212;-82
2023/04/11 15:24:35;;;;;;;9.43;2.40;;;;;17.30;100725.00;;;;9848718;29;20292;-81
2023/04/11 15:29:37;;;;;;;6.18;1.73;;;;;17.00;100731.00;;;;9821501;29;20978;-81
2023/04/11 15:34:40;;;;;;;6.22;1.75;;;;;17.10;100718.00;;;;9825368;29;20211;-82
2023/04/11 15:39:42;;;;;;;6.10;1.58;;;;;16.90;100707.00;;;;9807375;29;20292;-82
2023/04/11 15:44:44;;;;;;;7.53;1.92;;;;;16.70;100707.00;;;;9803473;29;20235;-83
2023/04/11 15:49:46;;;;;;;8.77;2.42;;;;;16.50;100699.00;;;;9813573;29;20286;-83
2023/04/11 15:54:48;;;;;;;5.78;1.52;;;;;16.50;100691.00;;;;9806632;29;20234;-84
2023/04/11 15:59:50;;;;;;;6.60;1.60;;;;;16.50;100691.00;;;;9835617;29;20242;-82
2023/04/11 16:04:53;;;;;;;5.47;1.70;;;;;16.50;100685.00;;;;9847022;29;20239;-83
2023/04/11 16:09:56;;;;;;;5.88;1.98;;;;;16.20;100677.00;;;;9849155;29;20216;-83
2023/04/11 16:14:58;;;;;;;4.18;2.03;;;;;16.00;100679.00;;;;9806966;29;20250;-84
2023/04/11 16:20:00;;;;;;;6.95;2.38;;;;;15.80;100677.00;;;;9820204;29;20250;-83
2023/04/11 16:25:04;;;;;;;4.57;1.63;;;;;15.50;100682.00;;;;9837219;29;20266;-84
2023/04/11 16:30:08;;;;;;;5.53;2.45;;;;;14.70;100678.00;;;;9820405;29;20242;-84
2023/04/11 16:35:10;;;;;;;11.43;2.13;;;;;14.10;100660.00;;;;9806706;29;20219;-83
2023/04/11 16:40:12;;;;;;;9.23;2.00;;;;;13.70;100656.00;;;;9819741;29;20372;-84
2023/04/11 16:45:14;;;;;;;5.40;1.57;;;;;13.40;100653.00;;;;9815565;29;20246;-83
2023/04/11 16:50:16;;;;;;;9.17;2.40;;;;;13.20;100665.00;;;;9865937;29;20344;-82
2023/04/11 16:55:19;;;;;;;8.33;2.10;;;;;13.20;100663.00;;;;9851436;29;20654;-83
2023/04/11 17:00:22;;;;;;;8.23;2.03;;;;;13.10;100649.00;;;;9838065;29;20233;-84
2023/04/11 17:05:24;;;;;;;4.67;1.50;;;;;13.20;100649.00;;;;9860018;29;20319;-83
2023/04/11 17:10:26;;;;;;;8.60;1.77;;;;;13.10;100649.00;;;;9872072;29;21182;-85
2023/04/11 17:15:28;;;;;;;7.50;1.80;;;;;12.90;100644.00;;;;9860740;29;20291;-83
2023/04/11 17:20:31;;;;;;;4.97;1.77;;;;;12.80;100637.00;;;;9834928;29;20658;-83
2023/04/11 17:25:33;;;;;;;5.63;1.83;;;;;12.70;100635.00;;;;9872916;29;20229;-83
2023/04/11 17:30:35;;;;;;;5.90;1.60;;;;;12.50;100624.00;;;;9862591;29;20766;-83
2023/04/11 17:35:37;;;;;;;3.07;1.17;;;;;12.20;100617.00;;;;9864464;29;20701;-83
2023/04/11 17:40:43;;;;;;;3.53;1.30;;;;;12.10;100611.00;;;;9864731;29;20219;-84
2023/04/11 17:45:45;;;;;;;6.10;1.23;;;;;12.00;100607.00;;;;9824396;29;20302;-82
2023/04/11 17:50:50;;;;;;;6.83;1.63;;;;;12.00;100596.00;;;;9858826;29;20204;-82
2023/04/11 17:55:53;;;;;;;6.90;1.30;;;;;11.80;100592.00;;;;9867748;29;20305;-81
2023/04/11 18:00:55;;;;;;;6.90;1.80;;;;;11.70;100579.00;;;;9848655;29;20252;-82
2023/04/11 18:05:58;;;;;;;4.73;1.50;;;;;11.50;100573.00;;;;9838424;29;20235;-82
2023/04/11 18:11:02;;;;;;;6.47;1.40;;;;;11.40;100572.00;;;;9846367;29;20222;-82
2023/04/11 18:16:04;;;;;;;3.67;1.10;;;;;11.40;100560.00;;;;9836698;29;20333;-82
2023/04/11 18:21:06;;;;;;;4.93;1.40;;;;;11.30;100550.00;;;;9836105;29;20208;-82
2023/04/11 18:26:09;;;;;;;5.97;1.73;;;;;11.20;100553.00;;;;9834923;29;20246;-82
2023/04/11 18:31:11;;;;;;;6.73;1.50;;;;;11.10;100544.00;;;;9837023;29;20208;-82
2023/04/11 18:36:13;;;;;;;5.20;1.57;;;;;11.00;100540.00;;;;9841597;29;20208;-82
2023/04/11 18:41:15;;;;;;;6.73;2.00;;;;;11.00;100541.00;;;;9846073;29;20223;-82
2023/04/11 18:46:19;;;;;;;5.90;1.80;;;;;10.90;100541.00;;;;9819785;29;20463;-83
2023/04/11 18:51:20;;;;;;;5.13;1.73;;;;;10.90;100526.00;;;;9845006;29;20679;-82
2023/04/11 18:56:23;;;;;;;6.70;1.90;;;;;10.80;100528.00;;;;9832685;29;20211;-81
2023/04/11 19:01:24;;;;;;;12.30;2.40;;;;;10.80;100525.00;;;;9868980;29;20227;-83
2023/04/11 19:06:27;;;;;;;6.83;2.50;;;;;10.80;100517.00;;;;9845112;29;20604;-82
2023/04/11 19:11:29;;;;;;;11.57;3.80;;;;;10.80;100503.00;;;;9870309;29;20443;-83
2023/04/11 19:16:32;;;;;;;9.03;3.50;;;;;10.70;100492.00;;;;9854118;29;21002;-82
2023/04/11 19:21:34;;;;;;;13.47;4.30;;;;;10.60;100476.00;;;;9843593;29;20740;-83
2023/04/11 19:26:37;;;;;;;11.40;3.13;;;;;10.60;100475.00;;;;9857568;29;20250;-82
2023/04/11 19:31:39;;;;;;;8.50;3.40;;;;;10.50;100466.00;;;;9867520;29;20223;-81
2023/04/11 19:36:41;;;;;;;10.77;3.70;;;;;10.50;100456.00;;;;9853970;29;20203;-82
2023/04/11 19:41:45;;;;;;;11.60;3.50;;;;;10.50;100440.00;;;;9844836;29;20210;-79
2023/04/11 19:46:47;;;;;;;7.97;2.53;;;;;10.50;100440.00;;;;9836207;29;20234;-80
2023/04/11 19:51:49;;;;;;;9.03;2.90;;;;;10.50;100428.00;;;;9860477;29;20334;-82
2023/04/11 19:56:52;;;;;;;9.70;3.30;;;;;10.40;100435.00;;;;9856917;29;20258;-81
2023/04/11 20:01:54;;;;;;;6.70;3.03;;;;;10.40;100426.00;;;;9844570;29;20219;-80
2023/04/11 20:06:59;;;;;;;6.73;2.97;;;;;10.30;100412.00;;;;9844444;29;20231;-80
2023/04/11 20:12:02;;;;;;;6.70;2.50;;;;;10.20;100412.00;;;;9831475;29;21378;-80
2023/04/11 20:17:04;;;;;;;7.73;2.30;;;;;10.20;100395.00;;;;9850028;29;20208;-80
2023/04/11 20:22:09;;;;;;;6.50;2.13;;;;;10.20;100403.00;;;;9877393;29;20216;-81
2023/04/11 20:27:11;;;;;;;7.73;2.37;;;;;10.20;100405.00;;;;9862296;29;20239;-81
2023/04/11 20:32:13;;;;;;;10.60;2.07;;;;;10.10;100382.00;;;;9850834;29;20647;-81
2023/04/11 20:37:15;;;;;;;6.80;2.50;;;;;10.00;100375.00;;;;9852584;29;20199;-81
2023/04/11 20:42:20;;;;;;;7.47;2.23;;;;;9.70;100388.00;;;;9875762;29;20264;-81
2023/04/11 20:47:23;;;;;;;7.37;2.30;;;;;9.50;100365.00;;;;9847588;29;20318;-81
2023/04/11 20:52:25;;;;;;;7.53;1.73;;;;;9.30;100359.00;;;;9879944;29;20272;-80
2023/04/11 20:57:32;;;;;;;8.17;1.93;;;;;9.10;100352.00;;;;9865947;29;20219;-80
2023/04/11 21:02:34;;;;;;;10.33;3.07;;;;;9.00;100347.00;;;;9861057;29;20627;-79
2023/04/11 21:07:37;;;;;;;10.50;2.30;;;;;8.90;100341.00;;;;9849294;29;20254;-80
2023/04/11 21:12:41;;;;;;;8.27;2.03;;;;;8.80;100330.00;;;;9882175;29;20222;-80
2023/04/11 21:17:44;;;;;;;7.13;1.90;;;;;8.70;100319.00;;;;9876359;29;20414;-80
2023/04/11 21:22:49;;;;;;;8.63;2.07;;;;;8.60;100304.00;;;;9857081;29;20876;-80
2023/04/11 21:27:51;;;;;;;4.87;2.10;;;;;8.60;100285.00;;;;9898221;29;20236;-79
2023/04/11 21:32:53;;;;;;;9.20;2.43;;;;;8.50;100282.00;;;;9831913;30;20204;-81
2023/04/11 21:37:55;;;;;;;8.93;2.40;;;;;8.60;100269.00;;;;9843267;29;20204;-81
2023/04/11 21:42:56;;;;;;;7.67;1.93;;;;;8.50;100263.00;;;;9854782;29;20739;-80
2023/04/11 21:47:59;;;;;;;4.90;1.80;;;;;8.50;100262.00;;;;9860867;29;20721;-81
2023/04/11 21:53:01;;;;;;;7.30;1.50;;;;;8.50;100243.00;;;;9884924;29;20208;-79
2023/04/11 21:58:02;;;;;;;4.27;1.40;;;;;8.40;100248.00;;;;9882747;29;20780;-80
2023/04/11 22:03:06;;;;;;;6.53;1.50;;;;;8.40;100232.00;;;;9879727;29;20291;-80
2023/04/11 22:08:13;;;;;;;4.03;1.40;;;;;8.30;100218.00;;;;9856618;29;20227;-79
2023/04/11 22:13:18;;;;;;;3.83;1.30;;;;;8.20;100220.00;;;;9865704;29;20204;-80
2023/04/11 22:18:25;;;;;;;3.57;1.40;;;;;8.20;100211.00;;;;9864095;29;20242;-80
2023/04/11 22:23:26;;;;;;;3.03;1.43;;;;;8.20;100187.00;;;;9874897;29;20739;-81
2023/04/11 22:28:29;;;;;;;4.80;1.50;;;;;8.10;100183.00;;;;9839353;29;20242;-80
2023/04/11 22:33:31;;;;;;;3.53;1.60;;;;;8.10;100165.00;;;;9858839;29;20366;-80
2023/04/11 22:38:34;;;;;;;8.17;2.30;;;;;8.10;100161.00;;;;9842315;30;20216;-80
2023/04/11 22:43:36;;;;;;;4.90;1.83;;;;;8.10;100146.00;;;;9850250;29;20200;-81
2023/04/11 22:48:40;;;;;;;4.47;1.57;;;;;8.00;100129.00;;;;9865638;29;20219;-81
2023/04/11 22:53:46;;;;;;;4.07;1.63;;;;;8.00;100120.00;;;;9889272;29;20206;-80
2023/04/11 22:58:49;;;;;;;3.23;1.10;;;;;8.00;100105.00;;;;9865192;29;20767;-79
2023/04/11 23:03:51;;;;;;;3.90;1.53;;;;;8.00;100097.00;;;;9848125;29;20215;-80
2023/04/11 23:08:53;;;;;;;3.27;1.23;;;;;8.00;100097.00;;;;9913850;29;20231;-80
2023/04/11 23:13:56;;;;;;;2.00;1.20;;;;;8.00;100084.00;;;;9915055;29;20285;-80
2023/04/11 23:18:58;;;;;;;6.60;1.50;;;;;8.00;100060.00;;;;9859040;29;20246;-79
2023/04/11 23:24:01;;;;;;;1.87;1.30;;;;;8.00;100053.00;;;;9826234;30;20261;-80
2023/04/11 23:29:03;;;;;;;5.60;1.40;;;;;8.00;100036.00;;;;9853653;29;20232;-80
2023/04/11 23:34:05;;;;;;;3.73;1.03;;;;;8.00;100022.00;;;;9825386;30;20425;-80
2023/04/11 23:39:08;;;;;;;3.57;1.40;;;;;8.00;100002.00;;;;9824808;29;20677;-81
2023/04/11 23:44:10;;;;;;;5.53;1.40;;;;;8.00;99989.00;;;;9846393;29;20264;-81
2023/04/11 23:49:12;;;;;;;3.37;1.20;;;;;8.00;99968.00;;;;9861142;29;20246;-80
2023/04/11 23:54:14;;;;;;;4.03;1.33;;;;;8.00;99950.00;;;;9858193;29;20265;-80
2023/04/11 23:59:16;;;;;;;2.07;1.20;;;;;8.00;99931.00;;;;9848181;29;20235;-81
